Harpers Crossroads, North Carolina
Current Conditions -  °F | °C
As of 2:55 PM on Sunday 28 Dec 2014 (Local Time) from K5W8 Reporting Station
Overcast Overcast  
Wind Chill: 60°   Ceiling: 1900
Heat Index: 60°   Visibility: 10mi
Dew Point: 56°   Wind: 5mph
Humidity: 85%   Direction: 220°SW
Pressure: 30"   Gusts: NA
Location:  35.6078°N, 79.3636°W
Report Text: K5W8 281955Z AUTO 22004KT 10SM OVC019 16/13 A3000 RMK AO2 T01560131
Loading
Personal Weather Stations






























Interactive Weather Map New forecast layout! Learn more

10-Day Weather Forecast

Advertisements
Track Severe Weather on mobile